Nearby METAR Reports

 

KTAN - Taunton, Massachusetts, USA
Distance from station: W 5mi, 8km
Updated: Sun, 25-Feb-2024 4:52am EST
Clear
Clear
 Wind from NNW
Wind: NNW 5 mph , 7 km/h
Temperature: 19°F , -7°C
Wind Chill: 12°F , -11°C
Dew Point: -0°F , -18°C
Humidity: 42%
Barometer: 30.09 inHg , 1019 hPa
Clouds: Clear
Visibility: 10 miles , 16 km
2024/02/25 09:52 KTAN 250952Z AUTO 34004KT 10SM CLR M07/M18 A3009 RMK AO2 SLP190 T10721183
KPYM - Plymouth, Massachusetts, USA
Distance from station: ENE 10mi, 16km
Updated: Sun, 25-Feb-2024 4:52am EST
Clear
Clear
 Wind from NNW
Wind: NNW 7 mph , 11 km/h
Temperature: 18°F , -8°C
Wind Chill: 9°F , -13°C
Dew Point: 1°F , -17°C
Humidity: 49%
Barometer: 30.07 inHg , 1018.3 hPa
Clouds: Clear
Visibility: 10 miles , 16 km
2024/02/25 09:52 KPYM 250952Z AUTO 33006KT 10SM CLR M08/M17 A3007 RMK AO2 SLP188 T10831172
 
KEWB - New Bedford, Massachusetts, USA
Distance from station: S 14mi, 23km
Updated: Sun, 25-Feb-2024 4:53am EST
Clear
Clear
 Wind from calm
Wind: Calm
Temperature: 18°F , -8°C
Dew Point: 1°F , -17°C
Humidity: 49%
Barometer: 30.09 inHg , 1019 hPa
Clouds: Clear
Visibility: 10 miles , 16 km
2024/02/25 09:53 KEWB 250953Z AUTO 00000KT 10SM CLR M08/M17 A3009 RMK AO2 SLP190 T10781167
KGHG - Marshfield, Massachusetts, USA
Distance from station: NE 20mi, 31km
Updated: Sun, 25-Feb-2024 5:15am EST
Mostly cloudy
Mostly cloudy
 Wind from varies
Wind: varies 3 mph , 6 km/h
Temperature: 16°F , -9°C
Dew Point: 3°F , -16°C
Humidity: 57%
Barometer: 30.10 inHg , 1019.3 hPa
Clouds: Mostly cloudy
Visibility: 10 miles , 16 km
Cloud details: Few Clouds 2900 ft
Partly cloudy 3600 ft
Mostly cloudy 4300 ft
2024/02/25 10:15 KGHG 251015Z AUTO VRB03KT 10SM FEW029 SCT036 BKN043 M09/M16 A3010 RMK AO2
 
KOWD - Norwood, Massachusetts, USA
Distance from station: NNW 24mi, 39km
Updated: Sun, 25-Feb-2024 4:53am EST
Clear
Clear
 Wind from NNW
Wind: NNW 3 mph , 6 km/h
Temperature: 18°F , -8°C
Dew Point: -0°F , -18°C
Humidity: 45%
Barometer: 30.10 inHg , 1019.3 hPa
Clouds: Clear
Visibility: 10 miles , 16 km
2024/02/25 09:53 KOWD 250953Z AUTO 33003KT 10SM CLR M08/M18 A3010 RMK AO2 SLP192 T10781183
KMQE - East Milton, Massachusetts, USA
Distance from station: NNW 25mi, 40km
Updated: Thu, 01-Jul-2021 9:51am EDT
NOT Current

 Wind from WNW
Wind: WNW 9 mph , 15 km/h
Temperature: 75°F , 24°C
Dew Point: 70°F , 21°C
Humidity: 83%
Barometer: 29.86 inHg , 1011.2 hPa
2021/07/01 13:51 KMQE 011351Z AUTO 30008KT 24/21 A2986 RMK AO1 SLP116 T02440206
 
KFMH - Falmouth/Otis Ab, Massachusetts, USA
Distance from station: SE 27mi, 44km
Updated: Sun, 25-Feb-2024 4:56am EST
Clear
Clear
 Wind from NNW
Wind: NNW 9 mph , 15 km/h
Temperature: 16°F , -9°C
Wind Chill: 5°F , -15°C
Dew Point: 1°F , -17°C
Humidity: 53%
Barometer: 30.08 inHg , 1018.6 hPa
Clouds: Clear
Visibility: 10 miles , 16 km
2024/02/25 09:56 KFMH 250956Z 33008KT 10SM CLR M09/M17 A3008
KPVD - Providence/Green, Rhode Island, USA
Distance from station: WSW 29mi, 47km
Updated: Sun, 25-Feb-2024 4:51am EST
Clear
Clear
 Wind from N
Wind: N 5 mph , 7 km/h
Temperature: 18°F , -8°C
Wind Chill: 11°F , -12°C
Dew Point: -0°F , -18°C
Humidity: 45%
Barometer: 30.11 inHg , 1019.6 hPa
Clouds: Clear
Visibility: 10 miles , 16 km
2024/02/25 09:51 KPVD 250951Z 36004KT 10SM CLR M08/M18 A3011 RMK AO2 SLP195 T10831178
 
KSFZ - Pawtucket, Rhode Island, USA
Distance from station: W 30mi, 48km
Updated: Sun, 25-Feb-2024 4:56am EST
Clear
Clear
 Wind from NNW
Wind: NNW 5 mph , 7 km/h
Temperature: 14°F , -10°C
Wind Chill: 6°F , -14°C
Dew Point: 3°F , -16°C
Humidity: 62%
Barometer: 30.07 inHg , 1018.3 hPa
Clouds: Clear
Visibility: 10 miles , 16 km
2024/02/25 09:56 KSFZ 250956Z AUTO 34004KT 10SM CLR M10/M16 A3007 RMK AO2 SLP190 T11001156 FZRANO $
KUUU - Newport, Rhode Island, USA
Distance from station: SW 31mi, 50km
Updated: Sun, 25-Feb-2024 4:53am EST
Clear
Clear
 Wind from N
Wind: N 9 mph , 15 km/h
Temperature: 18°F , -8°C
Wind Chill: 7°F , -14°C
Dew Point: 1°F , -17°C
Humidity: 49%
Barometer: 30.09 inHg , 1019 hPa
Clouds: Clear
Visibility: 10 miles , 16 km
2024/02/25 09:53 KUUU 250953Z AUTO 36008KT 10SM CLR M08/M17 A3009 RMK AO2 SLP191 T10781172
 
KOQU - N. Kingston/Quon, Rhode Island, USA
Distance from station: SW 32mi, 52km
Updated: Sat, 24-Feb-2024 4:50pm EST
NOT Current
Clear
Clear
 Wind from NNW
Wind: NNW 17 mph , 28 km/h
Temperature: 39°F , 4°C
Wind Chill: 30°F , -1°C
Dew Point: 28°F , -2°C
Humidity: 65%
Barometer: 29.72 inHg , 1006.4 hPa
Clouds: Clear
Visibility: 10 miles , 16 km
2024/02/24 21:50 KOQU 242150Z 33015KT 10SM SKC 04/M02 A2972 RMK LAST
KBOS - Boston, Massachusetts, USA
Distance from station: N 33mi, 54km
Updated: Sun, 25-Feb-2024 4:54am EST
Clear
Clear
 Wind from NW
Wind: NW 7 mph , 11 km/h
Temperature: 18°F , -8°C
Wind Chill: 9°F , -13°C
Dew Point: -2°F , -19°C
Humidity: 41%
Barometer: 30.10 inHg , 1019.3 hPa
Clouds: Clear
Visibility: 10 miles , 16 km
2024/02/25 09:54 KBOS 250954Z 32006KT 10SM CLR M08/M19 A3010 RMK AO2 SLP192 T10831189
 
KHYA - Hyannis, Massachusetts, USA
Distance from station: ESE 37mi, 59km
Updated: Sun, 25-Feb-2024 4:56am EST
Clear
Clear
 Wind from N
Wind: N 5 mph , 7 km/h
Temperature: 21°F , -6°C
Wind Chill: 14°F , -10°C
Dew Point: 12°F , -11°C
Humidity: 68%
Barometer: 30.06 inHg , 1017.9 hPa
Clouds: Clear
Visibility: 10 miles , 16 km
2024/02/25 09:56 KHYA 250956Z AUTO 36004KT 10SM CLR M06/M11 A3006 RMK AO2 SLP179 T10561106
KMVY - Marthas Vineyard, Massachusetts, USA
Distance from station: SSE 37mi, 60km
Updated: Sun, 25-Feb-2024 4:53am EST
Clear
Clear
 Wind from NNW
Wind: NNW 8 mph , 13 km/h
Temperature: 19°F , -7°C
Wind Chill: 9°F , -13°C
Dew Point: 7°F , -14°C
Humidity: 58%
Barometer: 30.08 inHg , 1018.6 hPa
Clouds: Clear
Visibility: 10 miles , 16 km
2024/02/25 09:53 KMVY 250953Z AUTO 34007KT 10SM CLR M07/M14 A3008 RMK AO2 SLP186 T10721139
 
KPVC - Provincetown, Massachusetts, USA
Distance from station: ENE 38mi, 61km
Updated: Sun, 25-Feb-2024 4:56am EST
Clear
Clear
 Wind from NNW
Wind: NNW 10 mph , 17 km/h
Temperature: 23°F , -5°C
Wind Chill: 13°F , -11°C
Dew Point: 16°F , -9°C
Humidity: 74%
Barometer: 30.09 inHg , 1019 hPa
Clouds: Clear
Visibility: 10 miles , 16 km
2024/02/25 09:56 KPVC 250956Z AUTO 34009KT 10SM CLR M05/M09 A3009 RMK AO2 SLP188 T10501089 FZRANO
KBED - Bedford, Massachusetts, USA
Distance from station: NNW 44mi, 72km
Updated: Sun, 25-Feb-2024 4:51am EST
Clear
Clear
 Wind from calm
Wind: Calm
Temperature: 14°F , -10°C
Dew Point: -0°F , -18°C
Humidity: 52%
Barometer: 30.08 inHg , 1018.6 hPa
Clouds: Clear
Visibility: 10 miles , 16 km
2024/02/25 09:51 KBED 250951Z AUTO 00000KT 10SM CLR M10/M18 A3008 RMK AO2 SLP204 T11001183
 
KBVY - Beverly, Massachusetts, USA
Distance from station: 0 48mi, 77km
Updated: Sun, 25-Feb-2024 4:53am EST
Clear
Clear
 Wind from calm
Wind: Calm
Temperature: 12°F , -11°C
Dew Point: -0°F , -18°C
Humidity: 57%
Barometer: 30.09 inHg , 1019 hPa
Clouds: Clear
Visibility: 10 miles , 16 km
2024/02/25 09:53 KBVY 250953Z AUTO 00000KT 10SM CLR M11/M18 A3009 RMK AO2 SLP186 T11061178
KCQX - Chatham, Massachusetts, USA
Distance from station: ESE 49mi, 80km
Updated: Sun, 25-Feb-2024 4:52am EST
Clear
Clear
 Wind from N
Wind: N 3 mph , 6 km/h
Temperature: 25°F , -4°C
Dew Point: 12°F , -11°C
Humidity: 59%
Barometer: 30.07 inHg , 1018.3 hPa
Clouds: Clear
Visibility: 10 miles , 16 km
2024/02/25 09:52 KCQX 250952Z AUTO 36003KT 10SM CLR M04/M11 A3007 RMK AO2 SLP184 T10441106